sensor_id;sensor_type;location;lat;lon;timestamp;P1;durP1;ratioP1;P2;durP2;ratioP2
75997;SDS011;64685;48.762;44.822;2023-03-12T00:03:45;9.18;;;3.47;;
75997;SDS011;64685;48.762;44.822;2023-03-12T00:08:48;5.20;;;2.25;;
75997;SDS011;64685;48.762;44.822;2023-03-12T00:13:51;7.72;;;3.33;;
75997;SDS011;64685;48.762;44.822;2023-03-12T00:18:55;7.82;;;3.58;;
75997;SDS011;64685;48.762;44.822;2023-03-12T00:23:58;8.65;;;3.85;;
75997;SDS011;64685;48.762;44.822;2023-03-12T00:29:00;8.95;;;2.83;;
75997;SDS011;64685;48.762;44.822;2023-03-12T00:34:03;8.52;;;3.90;;
75997;SDS011;64685;48.762;44.822;2023-03-12T00:39:05;7.20;;;2.67;;
75997;SDS011;64685;48.762;44.822;2023-03-12T00:44:08;11.85;;;4.53;;
75997;SDS011;64685;48.762;44.822;2023-03-12T00:49:11;8.60;;;3.67;;
75997;SDS011;64685;48.762;44.822;2023-03-12T00:54:13;10.98;;;4.90;;
75997;SDS011;64685;48.762;44.822;2023-03-12T00:59:16;18.08;;;7.32;;
75997;SDS011;64685;48.762;44.822;2023-03-12T01:04:18;19.65;;;8.38;;
75997;SDS011;64685;48.762;44.822;2023-03-12T01:09:21;19.38;;;7.50;;
75997;SDS011;64685;48.762;44.822;2023-03-12T01:14:25;31.55;;;11.32;;
75997;SDS011;64685;48.762;44.822;2023-03-12T01:19:28;31.05;;;12.55;;
75997;SDS011;64685;48.762;44.822;2023-03-12T01:24:30;37.80;;;13.68;;
75997;SDS011;64685;48.762;44.822;2023-03-12T01:29:33;34.92;;;13.93;;
75997;SDS011;64685;48.762;44.822;2023-03-12T01:34:35;29.25;;;12.07;;
75997;SDS011;64685;48.762;44.822;2023-03-12T01:39:38;28.75;;;10.98;;
75997;SDS011;64685;48.762;44.822;2023-03-12T01:44:51;24.60;;;9.82;;
75997;SDS011;64685;48.762;44.822;2023-03-12T01:50:04;27.08;;;11.00;;
75997;SDS011;64685;48.762;44.822;2023-03-12T01:55:08;34.95;;;14.27;;
75997;SDS011;64685;48.762;44.822;2023-03-12T02:00:17;40.22;;;15.90;;
75997;SDS011;64685;48.762;44.822;2023-03-12T02:05:28;27.35;;;9.80;;
75997;SDS011;64685;48.762;44.822;2023-03-12T02:10:39;25.77;;;9.90;;
75997;SDS011;64685;48.762;44.822;2023-03-12T02:15:42;26.77;;;9.93;;
75997;SDS011;64685;48.762;44.822;2023-03-12T02:26:06;30.23;;;11.05;;
75997;SDS011;64685;48.762;44.822;2023-03-12T02:31:13;23.45;;;8.88;;
75997;SDS011;64685;48.762;44.822;2023-03-12T02:36:19;24.50;;;11.40;;
75997;SDS011;64685;48.762;44.822;2023-03-12T02:46:33;21.77;;;8.57;;
75997;SDS011;64685;48.762;44.822;2023-03-12T02:51:40;19.20;;;8.75;;
75997;SDS011;64685;48.762;44.822;2023-03-12T02:56:44;15.57;;;6.88;;
75997;SDS011;64685;48.762;44.822;2023-03-12T03:01:50;22.05;;;8.75;;
75997;SDS011;64685;48.762;44.822;2023-03-12T03:06:57;18.67;;;7.93;;
75997;SDS011;64685;48.762;44.822;2023-03-12T03:12:00;18.73;;;9.13;;
75997;SDS011;64685;48.762;44.822;2023-03-12T03:17:05;23.45;;;9.07;;
75997;SDS011;64685;48.762;44.822;2023-03-12T03:22:08;31.88;;;12.65;;
75997;SDS011;64685;48.762;44.822;2023-03-12T03:27:11;29.00;;;11.13;;
75997;SDS011;64685;48.762;44.822;2023-03-12T03:32:14;26.98;;;10.85;;
75997;SDS011;64685;48.762;44.822;2023-03-12T03:37:17;19.75;;;9.43;;
75997;SDS011;64685;48.762;44.822;2023-03-12T03:42:20;19.13;;;6.18;;
75997;SDS011;64685;48.762;44.822;2023-03-12T03:47:23;18.98;;;6.70;;
75997;SDS011;64685;48.762;44.822;2023-03-12T03:52:25;15.95;;;6.40;;
75997;SDS011;64685;48.762;44.822;2023-03-12T03:57:28;17.00;;;8.30;;
75997;SDS011;64685;48.762;44.822;2023-03-12T04:02:31;22.45;;;7.78;;
75997;SDS011;64685;48.762;44.822;2023-03-12T04:07:34;20.00;;;7.57;;
75997;SDS011;64685;48.762;44.822;2023-03-12T04:12:36;16.65;;;5.97;;
75997;SDS011;64685;48.762;44.822;2023-03-12T04:17:39;23.05;;;7.80;;
75997;SDS011;64685;48.762;44.822;2023-03-12T04:22:42;14.18;;;5.65;;
75997;SDS011;64685;48.762;44.822;2023-03-12T04:27:45;24.08;;;9.82;;
75997;SDS011;64685;48.762;44.822;2023-03-12T04:32:47;25.38;;;9.85;;
75997;SDS011;64685;48.762;44.822;2023-03-12T04:37:51;26.15;;;8.43;;
75997;SDS011;64685;48.762;44.822;2023-03-12T04:42:54;26.55;;;9.68;;
75997;SDS011;64685;48.762;44.822;2023-03-12T04:47:56;24.92;;;9.30;;
75997;SDS011;64685;48.762;44.822;2023-03-12T04:52:59;25.60;;;8.57;;
75997;SDS011;64685;48.762;44.822;2023-03-12T04:58:03;19.65;;;7.18;;
75997;SDS011;64685;48.762;44.822;2023-03-12T05:03:07;28.83;;;10.93;;
75997;SDS011;64685;48.762;44.822;2023-03-12T05:08:10;25.73;;;8.05;;
75997;SDS011;64685;48.762;44.822;2023-03-12T05:13:16;26.60;;;7.55;;
75997;SDS011;64685;48.762;44.822;2023-03-12T05:18:23;26.52;;;10.32;;
75997;SDS011;64685;48.762;44.822;2023-03-12T05:23:30;28.63;;;10.98;;
75997;SDS011;64685;48.762;44.822;2023-03-12T05:28:33;28.98;;;9.77;;
75997;SDS011;64685;48.762;44.822;2023-03-12T05:33:38;26.77;;;9.13;;
75997;SDS011;64685;48.762;44.822;2023-03-12T05:38:42;31.75;;;11.15;;
75997;SDS011;64685;48.762;44.822;2023-03-12T05:43:47;32.25;;;10.85;;
75997;SDS011;64685;48.762;44.822;2023-03-12T05:48:51;32.97;;;11.18;;
75997;SDS011;64685;48.762;44.822;2023-03-12T05:53:54;28.55;;;11.05;;
75997;SDS011;64685;48.762;44.822;2023-03-12T05:58:57;33.45;;;12.93;;
75997;SDS011;64685;48.762;44.822;2023-03-12T06:04:00;34.88;;;10.07;;
75997;SDS011;64685;48.762;44.822;2023-03-12T06:09:03;31.67;;;11.25;;
75997;SDS011;64685;48.762;44.822;2023-03-12T06:14:07;33.97;;;10.98;;
75997;SDS011;64685;48.762;44.822;2023-03-12T06:19:11;39.17;;;12.80;;
75997;SDS011;64685;48.762;44.822;2023-03-12T06:24:17;25.80;;;9.07;;
75997;SDS011;64685;48.762;44.822;2023-03-12T06:29:27;38.85;;;11.65;;
75997;SDS011;64685;48.762;44.822;2023-03-12T06:34:30;31.02;;;10.90;;
75997;SDS011;64685;48.762;44.822;2023-03-12T06:39:32;34.22;;;11.50;;
75997;SDS011;64685;48.762;44.822;2023-03-12T06:44:35;33.92;;;10.35;;
75997;SDS011;64685;48.762;44.822;2023-03-12T06:49:38;33.28;;;11.23;;
75997;SDS011;64685;48.762;44.822;2023-03-12T06:54:40;27.40;;;9.60;;
75997;SDS011;64685;48.762;44.822;2023-03-12T06:59:43;37.70;;;12.63;;
75997;SDS011;64685;48.762;44.822;2023-03-12T07:04:46;41.70;;;10.10;;
75997;SDS011;64685;48.762;44.822;2023-03-12T07:09:48;46.67;;;13.48;;
75997;SDS011;64685;48.762;44.822;2023-03-12T07:14:51;36.67;;;10.57;;
75997;SDS011;64685;48.762;44.822;2023-03-12T07:19:53;33.25;;;9.98;;
75997;SDS011;64685;48.762;44.822;2023-03-12T07:24:56;27.20;;;10.35;;
75997;SDS011;64685;48.762;44.822;2023-03-12T07:29:58;34.30;;;11.07;;
75997;SDS011;64685;48.762;44.822;2023-03-12T07:35:02;30.10;;;10.50;;
75997;SDS011;64685;48.762;44.822;2023-03-12T07:40:05;23.08;;;6.95;;
75997;SDS011;64685;48.762;44.822;2023-03-12T07:45:09;21.27;;;7.43;;
75997;SDS011;64685;48.762;44.822;2023-03-12T07:50:12;33.30;;;9.80;;
75997;SDS011;64685;48.762;44.822;2023-03-12T07:55:15;32.00;;;9.63;;
75997;SDS011;64685;48.762;44.822;2023-03-12T08:00:19;31.75;;;10.52;;
75997;SDS011;64685;48.762;44.822;2023-03-12T08:05:22;26.83;;;9.48;;
75997;SDS011;64685;48.762;44.822;2023-03-12T08:10:26;30.23;;;10.02;;
75997;SDS011;64685;48.762;44.822;2023-03-12T08:15:28;30.08;;;9.48;;
75997;SDS011;64685;48.762;44.822;2023-03-12T08:20:31;32.10;;;11.25;;
75997;SDS011;64685;48.762;44.822;2023-03-12T08:25:33;22.70;;;6.45;;
75997;SDS011;64685;48.762;44.822;2023-03-12T08:30:37;26.55;;;8.82;;
75997;SDS011;64685;48.762;44.822;2023-03-12T08:35:40;19.17;;;6.68;;
75997;SDS011;64685;48.762;44.822;2023-03-12T08:40:43;31.85;;;10.73;;
75997;SDS011;64685;48.762;44.822;2023-03-12T08:45:46;31.20;;;9.05;;
75997;SDS011;64685;48.762;44.822;2023-03-12T08:50:48;26.90;;;8.57;;
75997;SDS011;64685;48.762;44.822;2023-03-12T08:55:54;25.60;;;10.10;;
75997;SDS011;64685;48.762;44.822;2023-03-12T09:00:57;31.83;;;9.77;;
75997;SDS011;64685;48.762;44.822;2023-03-12T09:06:01;22.48;;;8.15;;
75997;SDS011;64685;48.762;44.822;2023-03-12T09:11:08;22.98;;;8.38;;
75997;SDS011;64685;48.762;44.822;2023-03-12T09:16:13;16.23;;;7.25;;
75997;SDS011;64685;48.762;44.822;2023-03-12T09:21:15;23.23;;;7.65;;
75997;SDS011;64685;48.762;44.822;2023-03-12T09:26:18;19.20;;;6.60;;
75997;SDS011;64685;48.762;44.822;2023-03-12T09:31:20;22.55;;;8.18;;
75997;SDS011;64685;48.762;44.822;2023-03-12T09:36:23;19.92;;;8.63;;
75997;SDS011;64685;48.762;44.822;2023-03-12T09:41:26;19.73;;;8.35;;
75997;SDS011;64685;48.762;44.822;2023-03-12T09:46:34;18.38;;;6.45;;
75997;SDS011;64685;48.762;44.822;2023-03-12T09:51:40;17.70;;;7.25;;
75997;SDS011;64685;48.762;44.822;2023-03-12T09:56:48;20.20;;;7.70;;
75997;SDS011;64685;48.762;44.822;2023-03-12T10:01:58;16.33;;;6.90;;
75997;SDS011;64685;48.762;44.822;2023-03-12T10:07:24;22.90;;;9.88;;
75997;SDS011;64685;48.762;44.822;2023-03-12T10:28:37;19.27;;;6.32;;
75997;SDS011;64685;48.762;44.822;2023-03-12T10:34:00;23.27;;;9.10;;
75997;SDS011;64685;48.762;44.822;2023-03-12T10:39:14;21.30;;;7.55;;
75997;SDS011;64685;48.762;44.822;2023-03-12T10:44:20;18.63;;;7.60;;
75997;SDS011;64685;48.762;44.822;2023-03-12T10:49:26;27.55;;;9.00;;
75997;SDS011;64685;48.762;44.822;2023-03-12T10:54:33;23.38;;;8.63;;
75997;SDS011;64685;48.762;44.822;2023-03-12T10:59:38;15.23;;;6.78;;
75997;SDS011;64685;48.762;44.822;2023-03-12T11:04:49;18.45;;;7.95;;
75997;SDS011;64685;48.762;44.822;2023-03-12T11:10:15;24.10;;;8.82;;
75997;SDS011;64685;48.762;44.822;2023-03-12T11:15:38;19.90;;;7.80;;
75997;SDS011;64685;48.762;44.822;2023-03-12T11:20:42;22.52;;;8.52;;
75997;SDS011;64685;48.762;44.822;2023-03-12T11:25:52;22.67;;;9.13;;
75997;SDS011;64685;48.762;44.822;2023-03-12T11:31:01;12.20;;;5.60;;
75997;SDS011;64685;48.762;44.822;2023-03-12T11:36:16;21.50;;;7.70;;
75997;SDS011;64685;48.762;44.822;2023-03-12T11:47:02;18.90;;;7.75;;
75997;SDS011;64685;48.762;44.822;2023-03-12T11:52:10;16.58;;;6.40;;
75997;SDS011;64685;48.762;44.822;2023-03-12T12:08:02;22.20;;;8.50;;
75997;SDS011;64685;48.762;44.822;2023-03-12T12:40:34;16.95;;;7.00;;
75997;SDS011;64685;48.762;44.822;2023-03-12T12:45:44;19.40;;;7.05;;
75997;SDS011;64685;48.762;44.822;2023-03-12T12:50:51;18.70;;;7.53;;
75997;SDS011;64685;48.762;44.822;2023-03-12T13:06:22;19.05;;;7.65;;
75997;SDS011;64685;48.762;44.822;2023-03-12T13:11:38;14.32;;;5.75;;
75997;SDS011;64685;48.762;44.822;2023-03-12T13:16:45;14.93;;;6.40;;
75997;SDS011;64685;48.762;44.822;2023-03-12T13:22:33;14.52;;;6.07;;
75997;SDS011;64685;48.762;44.822;2023-03-12T13:27:38;12.43;;;5.13;;
75997;SDS011;64685;48.762;44.822;2023-03-12T13:48:17;13.75;;;6.15;;
75997;SDS011;64685;48.762;44.822;2023-03-12T13:53:26;16.23;;;7.35;;
75997;SDS011;64685;48.762;44.822;2023-03-12T13:59:07;14.52;;;5.25;;
75997;SDS011;64685;48.762;44.822;2023-03-12T14:04:09;19.08;;;5.80;;
75997;SDS011;64685;48.762;44.822;2023-03-12T14:20:31;16.08;;;7.05;;
75997;SDS011;64685;48.762;44.822;2023-03-12T14:25:30;17.20;;;6.00;;
75997;SDS011;64685;48.762;44.822;2023-03-12T14:35:41;16.20;;;6.47;;
75997;SDS011;64685;48.762;44.822;2023-03-12T14:40:50;15.60;;;6.18;;
75997;SDS011;64685;48.762;44.822;2023-03-12T14:46:03;15.63;;;6.55;;
75997;SDS011;64685;48.762;44.822;2023-03-12T14:51:07;17.70;;;7.47;;
75997;SDS011;64685;48.762;44.822;2023-03-12T14:56:23;15.45;;;6.63;;
75997;SDS011;64685;48.762;44.822;2023-03-12T15:01:32;16.67;;;6.82;;
75997;SDS011;64685;48.762;44.822;2023-03-12T15:06:45;14.00;;;5.72;;
75997;SDS011;64685;48.762;44.822;2023-03-12T15:11:51;16.50;;;6.85;;
75997;SDS011;64685;48.762;44.822;2023-03-12T15:17:06;10.30;;;5.18;;
75997;SDS011;64685;48.762;44.822;2023-03-12T15:22:11;13.80;;;6.57;;
75997;SDS011;64685;48.762;44.822;2023-03-12T15:32:32;17.98;;;8.30;;
75997;SDS011;64685;48.762;44.822;2023-03-12T15:37:35;17.73;;;7.28;;
75997;SDS011;64685;48.762;44.822;2023-03-12T15:42:42;18.40;;;6.95;;
75997;SDS011;64685;48.762;44.822;2023-03-12T15:47:47;17.48;;;7.25;;
75997;SDS011;64685;48.762;44.822;2023-03-12T15:53:03;21.02;;;7.97;;
75997;SDS011;64685;48.762;44.822;2023-03-12T15:58:22;19.70;;;7.20;;
75997;SDS011;64685;48.762;44.822;2023-03-12T16:03:31;13.60;;;5.65;;
75997;SDS011;64685;48.762;44.822;2023-03-12T16:08:55;19.48;;;7.60;;
75997;SDS011;64685;48.762;44.822;2023-03-12T16:14:01;16.25;;;6.80;;
75997;SDS011;64685;48.762;44.822;2023-03-12T16:19:14;15.23;;;6.70;;
75997;SDS011;64685;48.762;44.822;2023-03-12T16:24:19;16.48;;;7.53;;
75997;SDS011;64685;48.762;44.822;2023-03-12T16:29:21;15.30;;;6.55;;
75997;SDS011;64685;48.762;44.822;2023-03-12T16:34:36;15.27;;;5.40;;
75997;SDS011;64685;48.762;44.822;2023-03-12T16:39:39;14.75;;;6.57;;
75997;SDS011;64685;48.762;44.822;2023-03-12T16:44:42;15.57;;;6.35;;
75997;SDS011;64685;48.762;44.822;2023-03-12T16:49:47;12.93;;;5.13;;
75997;SDS011;64685;48.762;44.822;2023-03-12T16:54:49;13.05;;;5.43;;
75997;SDS011;64685;48.762;44.822;2023-03-12T16:59:52;12.27;;;5.35;;
75997;SDS011;64685;48.762;44.822;2023-03-12T17:04:56;12.60;;;5.55;;
75997;SDS011;64685;48.762;44.822;2023-03-12T17:09:59;14.13;;;6.30;;
75997;SDS011;64685;48.762;44.822;2023-03-12T17:15:04;12.27;;;5.50;;
75997;SDS011;64685;48.762;44.822;2023-03-12T17:20:13;12.73;;;4.95;;
75997;SDS011;64685;48.762;44.822;2023-03-12T17:25:22;12.57;;;5.72;;
75997;SDS011;64685;48.762;44.822;2023-03-12T17:30:27;13.70;;;6.18;;
75997;SDS011;64685;48.762;44.822;2023-03-12T17:35:32;13.35;;;5.57;;
75997;SDS011;64685;48.762;44.822;2023-03-12T17:40:38;13.32;;;5.70;;
75997;SDS011;64685;48.762;44.822;2023-03-12T17:45:42;11.15;;;4.72;;
75997;SDS011;64685;48.762;44.822;2023-03-12T17:50:44;15.48;;;5.80;;
75997;SDS011;64685;48.762;44.822;2023-03-12T17:55:47;13.65;;;5.43;;
75997;SDS011;64685;48.762;44.822;2023-03-12T18:00:50;13.70;;;6.03;;
75997;SDS011;64685;48.762;44.822;2023-03-12T18:05:52;14.73;;;6.38;;
75997;SDS011;64685;48.762;44.822;2023-03-12T18:10:55;13.90;;;6.22;;
75997;SDS011;64685;48.762;44.822;2023-03-12T18:15:58;12.70;;;5.88;;
75997;SDS011;64685;48.762;44.822;2023-03-12T18:21:01;14.40;;;6.20;;
75997;SDS011;64685;48.762;44.822;2023-03-12T18:26:04;14.90;;;5.95;;
75997;SDS011;64685;48.762;44.822;2023-03-12T18:31:07;12.65;;;6.28;;
75997;SDS011;64685;48.762;44.822;2023-03-12T18:36:09;13.68;;;5.70;;
75997;SDS011;64685;48.762;44.822;2023-03-12T18:41:12;12.35;;;5.38;;
75997;SDS011;64685;48.762;44.822;2023-03-12T18:46:15;14.27;;;5.70;;
75997;SDS011;64685;48.762;44.822;2023-03-12T18:51:20;12.77;;;5.72;;
75997;SDS011;64685;48.762;44.822;2023-03-12T18:56:22;15.15;;;7.15;;
75997;SDS011;64685;48.762;44.822;2023-03-12T19:01:25;11.23;;;5.88;;
75997;SDS011;64685;48.762;44.822;2023-03-12T19:06:27;14.95;;;6.03;;
75997;SDS011;64685;48.762;44.822;2023-03-12T19:11:45;12.48;;;5.20;;
75997;SDS011;64685;48.762;44.822;2023-03-12T19:16:48;14.82;;;6.90;;
75997;SDS011;64685;48.762;44.822;2023-03-12T19:21:51;14.07;;;6.72;;
75997;SDS011;64685;48.762;44.822;2023-03-12T19:26:54;17.38;;;7.28;;
75997;SDS011;64685;48.762;44.822;2023-03-12T19:31:57;16.10;;;7.28;;
75997;SDS011;64685;48.762;44.822;2023-03-12T19:37:00;19.25;;;7.18;;
75997;SDS011;64685;48.762;44.822;2023-03-12T19:42:02;18.20;;;7.90;;
75997;SDS011;64685;48.762;44.822;2023-03-12T19:47:05;15.45;;;6.28;;
75997;SDS011;64685;48.762;44.822;2023-03-12T19:52:09;15.07;;;6.65;;
75997;SDS011;64685;48.762;44.822;2023-03-12T19:57:11;14.80;;;6.20;;
75997;SDS011;64685;48.762;44.822;2023-03-12T20:02:14;14.18;;;5.82;;
75997;SDS011;64685;48.762;44.822;2023-03-12T20:07:16;10.02;;;5.43;;
75997;SDS011;64685;48.762;44.822;2023-03-12T20:12:19;13.10;;;6.07;;
75997;SDS011;64685;48.762;44.822;2023-03-12T20:17:21;14.00;;;6.45;;
75997;SDS011;64685;48.762;44.822;2023-03-12T20:22:24;15.23;;;6.60;;
75997;SDS011;64685;48.762;44.822;2023-03-12T20:27:27;14.90;;;5.63;;
75997;SDS011;64685;48.762;44.822;2023-03-12T20:32:29;15.73;;;6.22;;
75997;SDS011;64685;48.762;44.822;2023-03-12T20:37:32;16.65;;;6.93;;
75997;SDS011;64685;48.762;44.822;2023-03-12T20:42:35;14.10;;;6.53;;
75997;SDS011;64685;48.762;44.822;2023-03-12T20:47:37;15.45;;;6.40;;
75997;SDS011;64685;48.762;44.822;2023-03-12T20:52:42;15.50;;;7.10;;
75997;SDS011;64685;48.762;44.822;2023-03-12T20:57:45;16.05;;;6.88;;
75997;SDS011;64685;48.762;44.822;2023-03-12T21:02:48;16.13;;;6.75;;
75997;SDS011;64685;48.762;44.822;2023-03-12T21:07:51;16.65;;;7.53;;
75997;SDS011;64685;48.762;44.822;2023-03-12T21:12:53;18.08;;;7.05;;
75997;SDS011;64685;48.762;44.822;2023-03-12T21:17:56;17.70;;;7.93;;
75997;SDS011;64685;48.762;44.822;2023-03-12T21:22:58;16.95;;;7.22;;
75997;SDS011;64685;48.762;44.822;2023-03-12T21:28:02;19.00;;;7.50;;
75997;SDS011;64685;48.762;44.822;2023-03-12T21:33:06;17.77;;;7.55;;
75997;SDS011;64685;48.762;44.822;2023-03-12T21:38:08;17.30;;;7.22;;
75997;SDS011;64685;48.762;44.822;2023-03-12T21:43:11;19.42;;;7.88;;
75997;SDS011;64685;48.762;44.822;2023-03-12T21:48:13;17.50;;;8.07;;
75997;SDS011;64685;48.762;44.822;2023-03-12T21:53:16;20.20;;;8.45;;
75997;SDS011;64685;48.762;44.822;2023-03-12T21:58:25;20.23;;;9.00;;
75997;SDS011;64685;48.762;44.822;2023-03-12T22:03:28;22.90;;;8.90;;
75997;SDS011;64685;48.762;44.822;2023-03-12T22:08:31;22.83;;;9.27;;
75997;SDS011;64685;48.762;44.822;2023-03-12T22:13:34;23.85;;;10.45;;
75997;SDS011;64685;48.762;44.822;2023-03-12T22:18:38;21.85;;;9.25;;
75997;SDS011;64685;48.762;44.822;2023-03-12T22:23:42;21.05;;;9.13;;
75997;SDS011;64685;48.762;44.822;2023-03-12T22:28:51;20.85;;;9.25;;
75997;SDS011;64685;48.762;44.822;2023-03-12T22:33:56;20.20;;;9.13;;
75997;SDS011;64685;48.762;44.822;2023-03-12T22:38:58;21.70;;;9.68;;
75997;SDS011;64685;48.762;44.822;2023-03-12T22:44:02;18.13;;;8.32;;
75997;SDS011;64685;48.762;44.822;2023-03-12T22:49:07;20.20;;;7.85;;
75997;SDS011;64685;48.762;44.822;2023-03-12T22:54:09;15.93;;;7.55;;
75997;SDS011;64685;48.762;44.822;2023-03-12T22:59:12;19.00;;;7.45;;
75997;SDS011;64685;48.762;44.822;2023-03-12T23:04:14;16.77;;;7.07;;
75997;SDS011;64685;48.762;44.822;2023-03-12T23:09:17;15.55;;;7.13;;
75997;SDS011;64685;48.762;44.822;2023-03-12T23:14:20;12.07;;;5.50;;
75997;SDS011;64685;48.762;44.822;2023-03-12T23:19:23;14.52;;;5.72;;
75997;SDS011;64685;48.762;44.822;2023-03-12T23:24:25;12.55;;;5.68;;
75997;SDS011;64685;48.762;44.822;2023-03-12T23:29:31;15.27;;;6.88;;
75997;SDS011;64685;48.762;44.822;2023-03-12T23:34:35;13.93;;;6.68;;
75997;SDS011;64685;48.762;44.822;2023-03-12T23:39:37;14.82;;;7.45;;
75997;SDS011;64685;48.762;44.822;2023-03-12T23:49:57;14.73;;;6.68;;
75997;SDS011;64685;48.762;44.822;2023-03-12T23:54:59;17.58;;;6.95;;
